Jerome, Arizona
Current Conditions -  °F | °C
As of 11:53 AM on Friday 28 Nov 2014 (Local Time) from KPRC Reporting Station
Clear Clear  
Wind Chill: 65°   Ceiling: Unl
Heat Index: 65°   Visibility: 10mi
Dew Point: 13°   Wind: 7mph
Humidity: 13%   Direction: 350°N
Pressure: 30.17"   Gusts: NA
Location:  34.75°N, 112.11°W
Report Text: KPRC 281853Z 35006KT 10SM CLR 18/M11 A3017 RMK AO2 SLP169 T01831106
Loading
Personal Weather Stations






























Interactive Weather Map New forecast layout! Learn more

10-Day Weather Forecast

Advertisements
Track Severe Weather on mobile